sensor_id;sensor_type;location;lat;lon;timestamp;P1;durP1;ratioP1;P2;durP2;ratioP2
9276;SDS011;4676;42.678;23.244;2022-09-09T00:00:11;9.93;;;9.13;;
9276;SDS011;4676;42.678;23.244;2022-09-09T00:02:40;9.97;;;9.17;;
9276;SDS011;4676;42.678;23.244;2022-09-09T00:05:14;9.27;;;8.70;;
9276;SDS011;4676;42.678;23.244;2022-09-09T00:07:51;10.23;;;9.33;;
9276;SDS011;4676;42.678;23.244;2022-09-09T00:10:26;11.03;;;9.90;;
9276;SDS011;4676;42.678;23.244;2022-09-09T00:12:57;11.00;;;9.90;;
9276;SDS011;4676;42.678;23.244;2022-09-09T00:15:33;9.43;;;8.83;;
9276;SDS011;4676;42.678;23.244;2022-09-09T00:18:07;10.50;;;9.67;;
9276;SDS011;4676;42.678;23.244;2022-09-09T00:20:44;9.80;;;9.00;;
9276;SDS011;4676;42.678;23.244;2022-09-09T00:23:22;9.10;;;8.53;;
9276;SDS011;4676;42.678;23.244;2022-09-09T00:25:54;11.23;;;9.53;;
9276;SDS011;4676;42.678;23.244;2022-09-09T00:28:29;10.47;;;9.57;;
9276;SDS011;4676;42.678;23.244;2022-09-09T00:30:59;10.70;;;9.60;;
9276;SDS011;4676;42.678;23.244;2022-09-09T00:33:34;9.37;;;8.67;;
9276;SDS011;4676;42.678;23.244;2022-09-09T00:36:01;10.20;;;9.40;;
9276;SDS011;4676;42.678;23.244;2022-09-09T00:38:33;9.23;;;8.57;;
9276;SDS011;4676;42.678;23.244;2022-09-09T00:41:04;9.90;;;9.10;;
9276;SDS011;4676;42.678;23.244;2022-09-09T00:43:35;9.97;;;8.97;;
9276;SDS011;4676;42.678;23.244;2022-09-09T00:46:10;9.47;;;8.73;;
9276;SDS011;4676;42.678;23.244;2022-09-09T00:48:48;9.73;;;9.10;;
9276;SDS011;4676;42.678;23.244;2022-09-09T00:51:24;10.20;;;9.27;;
9276;SDS011;4676;42.678;23.244;2022-09-09T00:54:04;10.20;;;9.30;;
9276;SDS011;4676;42.678;23.244;2022-09-09T00:56:42;10.40;;;9.47;;
9276;SDS011;4676;42.678;23.244;2022-09-09T00:59:22;9.87;;;8.97;;
9276;SDS011;4676;42.678;23.244;2022-09-09T01:01:54;10.27;;;9.50;;
9276;SDS011;4676;42.678;23.244;2022-09-09T01:04:23;11.23;;;9.83;;
9276;SDS011;4676;42.678;23.244;2022-09-09T01:06:57;9.27;;;8.47;;
9276;SDS011;4676;42.678;23.244;2022-09-09T01:09:32;9.67;;;8.97;;
9276;SDS011;4676;42.678;23.244;2022-09-09T01:12:07;10.05;;;9.25;;
9276;SDS011;4676;42.678;23.244;2022-09-09T01:14:41;10.50;;;9.60;;
9276;SDS011;4676;42.678;23.244;2022-09-09T01:17:14;10.47;;;9.50;;
9276;SDS011;4676;42.678;23.244;2022-09-09T01:19:55;10.50;;;9.60;;
9276;SDS011;4676;42.678;23.244;2022-09-09T01:22:29;10.07;;;9.23;;
9276;SDS011;4676;42.678;23.244;2022-09-09T01:27:50;9.47;;;8.90;;
9276;SDS011;4676;42.678;23.244;2022-09-09T01:30:19;10.90;;;10.07;;
9276;SDS011;4676;42.678;23.244;2022-09-09T01:32:48;10.50;;;9.57;;
9276;SDS011;4676;42.678;23.244;2022-09-09T01:35:19;11.90;;;10.50;;
9276;SDS011;4676;42.678;23.244;2022-09-09T01:37:54;12.23;;;11.17;;
9276;SDS011;4676;42.678;23.244;2022-09-09T01:40:20;12.27;;;11.10;;
9276;SDS011;4676;42.678;23.244;2022-09-09T01:42:49;11.40;;;10.27;;
9276;SDS011;4676;42.678;23.244;2022-09-09T01:45:17;11.23;;;10.43;;
9276;SDS011;4676;42.678;23.244;2022-09-09T01:47:44;10.60;;;9.13;;
9276;SDS011;4676;42.678;23.244;2022-09-09T01:50:12;11.00;;;10.00;;
9276;SDS011;4676;42.678;23.244;2022-09-09T01:52:41;11.63;;;10.53;;
9276;SDS011;4676;42.678;23.244;2022-09-09T01:55:10;15.17;;;9.63;;
9276;SDS011;4676;42.678;23.244;2022-09-09T01:57:38;11.20;;;10.20;;
9276;SDS011;4676;42.678;23.244;2022-09-09T02:00:15;14.97;;;10.33;;
9276;SDS011;4676;42.678;23.244;2022-09-09T02:02:44;10.97;;;9.97;;
9276;SDS011;4676;42.678;23.244;2022-09-09T02:05:21;10.80;;;9.90;;
9276;SDS011;4676;42.678;23.244;2022-09-09T02:07:58;10.17;;;9.33;;
9276;SDS011;4676;42.678;23.244;2022-09-09T02:10:30;10.77;;;9.87;;
9276;SDS011;4676;42.678;23.244;2022-09-09T02:13:00;11.23;;;10.07;;
9276;SDS011;4676;42.678;23.244;2022-09-09T02:15:32;11.53;;;10.60;;
9276;SDS011;4676;42.678;23.244;2022-09-09T02:18:06;10.10;;;9.30;;
9276;SDS011;4676;42.678;23.244;2022-09-09T02:20:35;11.03;;;10.23;;
9276;SDS011;4676;42.678;23.244;2022-09-09T02:23:04;10.50;;;9.70;;
9276;SDS011;4676;42.678;23.244;2022-09-09T02:25:33;10.70;;;10.00;;
9276;SDS011;4676;42.678;23.244;2022-09-09T02:28:03;11.27;;;9.90;;
9276;SDS011;4676;42.678;23.244;2022-09-09T02:30:34;10.50;;;9.57;;
9276;SDS011;4676;42.678;23.244;2022-09-09T02:33:04;11.10;;;10.33;;
9276;SDS011;4676;42.678;23.244;2022-09-09T02:35:35;11.17;;;10.27;;
9276;SDS011;4676;42.678;23.244;2022-09-09T02:38:04;11.73;;;10.77;;
9276;SDS011;4676;42.678;23.244;2022-09-09T02:40:35;12.47;;;11.30;;
9276;SDS011;4676;42.678;23.244;2022-09-09T02:43:02;11.40;;;10.47;;
9276;SDS011;4676;42.678;23.244;2022-09-09T02:45:31;12.43;;;11.27;;
9276;SDS011;4676;42.678;23.244;2022-09-09T02:48:09;12.53;;;11.53;;
9276;SDS011;4676;42.678;23.244;2022-09-09T02:50:41;12.03;;;11.03;;
9276;SDS011;4676;42.678;23.244;2022-09-09T02:53:22;13.67;;;10.37;;
9276;SDS011;4676;42.678;23.244;2022-09-09T02:55:54;11.93;;;10.77;;
9276;SDS011;4676;42.678;23.244;2022-09-09T02:58:24;13.10;;;11.80;;
9276;SDS011;4676;42.678;23.244;2022-09-09T03:00:53;12.67;;;11.70;;
9276;SDS011;4676;42.678;23.244;2022-09-09T03:03:19;11.90;;;10.90;;
9276;SDS011;4676;42.678;23.244;2022-09-09T03:05:47;11.77;;;10.87;;
9276;SDS011;4676;42.678;23.244;2022-09-09T03:08:14;13.30;;;11.17;;
9276;SDS011;4676;42.678;23.244;2022-09-09T03:10:41;12.07;;;11.00;;
9276;SDS011;4676;42.678;23.244;2022-09-09T03:13:08;13.63;;;11.80;;
9276;SDS011;4676;42.678;23.244;2022-09-09T03:15:34;14.00;;;11.23;;
9276;SDS011;4676;42.678;23.244;2022-09-09T03:18:03;12.03;;;10.97;;
9276;SDS011;4676;42.678;23.244;2022-09-09T03:20:30;12.03;;;10.87;;
9276;SDS011;4676;42.678;23.244;2022-09-09T03:22:59;12.00;;;10.93;;
9276;SDS011;4676;42.678;23.244;2022-09-09T03:25:27;11.17;;;10.37;;
9276;SDS011;4676;42.678;23.244;2022-09-09T03:27:55;11.60;;;10.70;;
9276;SDS011;4676;42.678;23.244;2022-09-09T03:30:22;12.03;;;11.13;;
9276;SDS011;4676;42.678;23.244;2022-09-09T03:32:49;11.80;;;10.80;;
9276;SDS011;4676;42.678;23.244;2022-09-09T03:35:17;12.10;;;11.13;;
9276;SDS011;4676;42.678;23.244;2022-09-09T03:37:45;11.70;;;10.70;;
9276;SDS011;4676;42.678;23.244;2022-09-09T03:40:12;12.50;;;11.30;;
9276;SDS011;4676;42.678;23.244;2022-09-09T03:42:39;12.57;;;11.37;;
9276;SDS011;4676;42.678;23.244;2022-09-09T03:45:06;11.97;;;10.97;;
9276;SDS011;4676;42.678;23.244;2022-09-09T03:47:35;11.63;;;10.77;;
9276;SDS011;4676;42.678;23.244;2022-09-09T03:50:03;12.83;;;11.53;;
9276;SDS011;4676;42.678;23.244;2022-09-09T03:52:35;14.63;;;11.73;;
9276;SDS011;4676;42.678;23.244;2022-09-09T03:55:02;12.93;;;11.70;;
9276;SDS011;4676;42.678;23.244;2022-09-09T03:57:30;15.03;;;11.73;;
9276;SDS011;4676;42.678;23.244;2022-09-09T03:59:57;12.27;;;11.03;;
9276;SDS011;4676;42.678;23.244;2022-09-09T04:02:26;11.80;;;10.90;;
9276;SDS011;4676;42.678;23.244;2022-09-09T04:04:52;12.33;;;11.03;;
9276;SDS011;4676;42.678;23.244;2022-09-09T04:07:19;12.60;;;11.30;;
9276;SDS011;4676;42.678;23.244;2022-09-09T04:09:47;12.57;;;11.07;;
9276;SDS011;4676;42.678;23.244;2022-09-09T04:12:14;11.37;;;10.57;;
9276;SDS011;4676;42.678;23.244;2022-09-09T04:14:43;11.93;;;10.93;;
9276;SDS011;4676;42.678;23.244;2022-09-09T04:19:49;15.63;;;11.27;;
9276;SDS011;4676;42.678;23.244;2022-09-09T04:22:16;12.97;;;11.67;;
9276;SDS011;4676;42.678;23.244;2022-09-09T04:24:43;12.63;;;11.33;;
9276;SDS011;4676;42.678;23.244;2022-09-09T04:27:11;16.50;;;11.53;;
9276;SDS011;4676;42.678;23.244;2022-09-09T04:29:38;12.30;;;10.90;;
9276;SDS011;4676;42.678;23.244;2022-09-09T04:32:04;13.20;;;11.87;;
9276;SDS011;4676;42.678;23.244;2022-09-09T04:34:31;17.80;;;12.37;;
9276;SDS011;4676;42.678;23.244;2022-09-09T04:36:58;25.27;;;15.63;;
9276;SDS011;4676;42.678;23.244;2022-09-09T04:39:25;26.10;;;15.23;;
9276;SDS011;4676;42.678;23.244;2022-09-09T04:41:52;29.57;;;15.47;;
9276;SDS011;4676;42.678;23.244;2022-09-09T04:44:20;39.40;;;18.27;;
9276;SDS011;4676;42.678;23.244;2022-09-09T04:46:47;48.30;;;21.67;;
9276;SDS011;4676;42.678;23.244;2022-09-09T04:49:14;46.90;;;20.67;;
9276;SDS011;4676;42.678;23.244;2022-09-09T04:51:40;37.67;;;18.73;;
9276;SDS011;4676;42.678;23.244;2022-09-09T04:54:21;23.83;;;16.57;;
9276;SDS011;4676;42.678;23.244;2022-09-09T04:56:49;20.53;;;13.67;;
9276;SDS011;4676;42.678;23.244;2022-09-09T04:59:17;16.70;;;14.37;;
9276;SDS011;4676;42.678;23.244;2022-09-09T05:01:45;15.77;;;13.17;;
9276;SDS011;4676;42.678;23.244;2022-09-09T05:04:11;14.30;;;12.07;;
9276;SDS011;4676;42.678;23.244;2022-09-09T05:06:39;13.20;;;11.80;;
9276;SDS011;4676;42.678;23.244;2022-09-09T05:09:05;15.60;;;11.23;;
9276;SDS011;4676;42.678;23.244;2022-09-09T05:11:33;13.00;;;11.07;;
9276;SDS011;4676;42.678;23.244;2022-09-09T05:14:01;11.47;;;10.27;;
9276;SDS011;4676;42.678;23.244;2022-09-09T05:16:29;11.90;;;10.67;;
9276;SDS011;4676;42.678;23.244;2022-09-09T05:18:57;12.77;;;11.47;;
9276;SDS011;4676;42.678;23.244;2022-09-09T05:21:24;14.40;;;10.70;;
9276;SDS011;4676;42.678;23.244;2022-09-09T05:23:51;12.93;;;11.60;;
9276;SDS011;4676;42.678;23.244;2022-09-09T05:26:18;13.37;;;11.27;;
9276;SDS011;4676;42.678;23.244;2022-09-09T05:28:46;13.03;;;11.93;;
9276;SDS011;4676;42.678;23.244;2022-09-09T05:31:14;16.87;;;12.10;;
9276;SDS011;4676;42.678;23.244;2022-09-09T05:33:42;15.13;;;13.57;;
9276;SDS011;4676;42.678;23.244;2022-09-09T05:36:13;13.53;;;12.43;;
9276;SDS011;4676;42.678;23.244;2022-09-09T05:38:40;13.57;;;12.37;;
9276;SDS011;4676;42.678;23.244;2022-09-09T05:41:08;13.73;;;12.43;;
9276;SDS011;4676;42.678;23.244;2022-09-09T05:43:36;17.20;;;12.10;;
9276;SDS011;4676;42.678;23.244;2022-09-09T05:46:04;14.33;;;12.97;;
9276;SDS011;4676;42.678;23.244;2022-09-09T05:48:33;13.87;;;12.47;;
9276;SDS011;4676;42.678;23.244;2022-09-09T05:51:01;13.90;;;12.67;;
9276;SDS011;4676;42.678;23.244;2022-09-09T05:53:30;16.63;;;12.80;;
9276;SDS011;4676;42.678;23.244;2022-09-09T05:55:59;15.90;;;13.70;;
9276;SDS011;4676;42.678;23.244;2022-09-09T05:58:28;20.17;;;13.03;;
9276;SDS011;4676;42.678;23.244;2022-09-09T06:01:00;17.70;;;13.90;;
9276;SDS011;4676;42.678;23.244;2022-09-09T06:03:28;14.33;;;13.03;;
9276;SDS011;4676;42.678;23.244;2022-09-09T06:05:58;14.37;;;12.60;;
9276;SDS011;4676;42.678;23.244;2022-09-09T06:08:26;15.83;;;12.73;;
9276;SDS011;4676;42.678;23.244;2022-09-09T06:11:00;16.60;;;13.37;;
9276;SDS011;4676;42.678;23.244;2022-09-09T06:13:28;14.17;;;12.97;;
9276;SDS011;4676;42.678;23.244;2022-09-09T06:15:55;16.63;;;12.80;;
9276;SDS011;4676;42.678;23.244;2022-09-09T06:18:21;13.60;;;12.40;;
9276;SDS011;4676;42.678;23.244;2022-09-09T06:20:55;14.53;;;12.07;;
9276;SDS011;4676;42.678;23.244;2022-09-09T06:23:23;10.23;;;9.37;;
9276;SDS011;4676;42.678;23.244;2022-09-09T06:25:50;9.73;;;8.93;;
9276;SDS011;4676;42.678;23.244;2022-09-09T06:28:18;10.47;;;9.53;;
9276;SDS011;4676;42.678;23.244;2022-09-09T06:30:45;10.87;;;9.90;;
9276;SDS011;4676;42.678;23.244;2022-09-09T06:33:12;13.90;;;10.53;;
9276;SDS011;4676;42.678;23.244;2022-09-09T06:35:39;11.47;;;10.53;;
9276;SDS011;4676;42.678;23.244;2022-09-09T06:38:05;12.53;;;10.37;;
9276;SDS011;4676;42.678;23.244;2022-09-09T06:40:33;15.20;;;11.70;;
9276;SDS011;4676;42.678;23.244;2022-09-09T06:43:00;13.07;;;11.77;;
9276;SDS011;4676;42.678;23.244;2022-09-09T06:45:28;12.70;;;11.43;;
9276;SDS011;4676;42.678;23.244;2022-09-09T06:47:56;13.43;;;12.00;;
9276;SDS011;4676;42.678;23.244;2022-09-09T06:50:22;12.17;;;10.90;;
9276;SDS011;4676;42.678;23.244;2022-09-09T06:52:49;11.80;;;10.77;;
9276;SDS011;4676;42.678;23.244;2022-09-09T06:55:16;12.40;;;11.03;;
9276;SDS011;4676;42.678;23.244;2022-09-09T06:57:43;19.57;;;11.37;;
9276;SDS011;4676;42.678;23.244;2022-09-09T07:00:11;11.87;;;10.93;;
9276;SDS011;4676;42.678;23.244;2022-09-09T07:02:40;12.63;;;11.60;;
9276;SDS011;4676;42.678;23.244;2022-09-09T07:05:07;12.40;;;11.37;;
9276;SDS011;4676;42.678;23.244;2022-09-09T07:07:34;12.77;;;11.67;;
9276;SDS011;4676;42.678;23.244;2022-09-09T07:10:02;12.57;;;11.37;;
9276;SDS011;4676;42.678;23.244;2022-09-09T07:12:29;12.90;;;11.87;;
9276;SDS011;4676;42.678;23.244;2022-09-09T07:14:56;14.60;;;11.13;;
9276;SDS011;4676;42.678;23.244;2022-09-09T07:17:23;12.80;;;11.00;;
9276;SDS011;4676;42.678;23.244;2022-09-09T07:19:51;14.30;;;11.47;;
9276;SDS011;4676;42.678;23.244;2022-09-09T07:22:17;11.40;;;10.40;;
9276;SDS011;4676;42.678;23.244;2022-09-09T07:24:45;13.43;;;11.53;;
9276;SDS011;4676;42.678;23.244;2022-09-09T07:27:12;15.73;;;11.60;;
9276;SDS011;4676;42.678;23.244;2022-09-09T07:29:38;14.07;;;11.23;;
9276;SDS011;4676;42.678;23.244;2022-09-09T07:32:05;12.70;;;11.60;;
9276;SDS011;4676;42.678;23.244;2022-09-09T07:34:32;14.63;;;11.57;;
9276;SDS011;4676;42.678;23.244;2022-09-09T07:37:00;13.50;;;10.80;;
9276;SDS011;4676;42.678;23.244;2022-09-09T07:39:26;11.37;;;10.47;;
9276;SDS011;4676;42.678;23.244;2022-09-09T07:41:53;12.03;;;10.67;;
9276;SDS011;4676;42.678;23.244;2022-09-09T07:44:21;13.27;;;10.50;;
9276;SDS011;4676;42.678;23.244;2022-09-09T07:46:49;10.53;;;9.70;;
9276;SDS011;4676;42.678;23.244;2022-09-09T07:49:17;12.20;;;10.97;;
9276;SDS011;4676;42.678;23.244;2022-09-09T07:51:45;11.30;;;10.27;;
9276;SDS011;4676;42.678;23.244;2022-09-09T07:54:14;11.83;;;10.60;;
9276;SDS011;4676;42.678;23.244;2022-09-09T07:56:45;12.87;;;9.77;;
9276;SDS011;4676;42.678;23.244;2022-09-09T07:59:12;13.23;;;10.47;;
9276;SDS011;4676;42.678;23.244;2022-09-09T08:01:39;13.27;;;12.10;;
9276;SDS011;4676;42.678;23.244;2022-09-09T08:04:08;11.30;;;10.40;;
9276;SDS011;4676;42.678;23.244;2022-09-09T08:06:40;11.40;;;10.20;;
9276;SDS011;4676;42.678;23.244;2022-09-09T08:09:08;11.87;;;10.67;;
9276;SDS011;4676;42.678;23.244;2022-09-09T08:11:37;14.13;;;10.23;;
9276;SDS011;4676;42.678;23.244;2022-09-09T08:14:05;14.60;;;10.33;;
9276;SDS011;4676;42.678;23.244;2022-09-09T08:16:34;10.87;;;9.47;;
9276;SDS011;4676;42.678;23.244;2022-09-09T08:19:02;11.27;;;10.27;;
9276;SDS011;4676;42.678;23.244;2022-09-09T08:21:31;13.00;;;10.87;;
9276;SDS011;4676;42.678;23.244;2022-09-09T08:23:59;10.50;;;9.37;;
9276;SDS011;4676;42.678;23.244;2022-09-09T08:26:27;11.37;;;10.27;;
9276;SDS011;4676;42.678;23.244;2022-09-09T08:28:58;11.30;;;9.37;;
9276;SDS011;4676;42.678;23.244;2022-09-09T08:31:26;11.03;;;9.70;;
9276;SDS011;4676;42.678;23.244;2022-09-09T08:33:55;13.10;;;9.37;;
9276;SDS011;4676;42.678;23.244;2022-09-09T08:36:23;11.27;;;9.27;;
9276;SDS011;4676;42.678;23.244;2022-09-09T08:38:52;14.00;;;10.77;;
9276;SDS011;4676;42.678;23.244;2022-09-09T08:44:19;9.97;;;9.33;;
9276;SDS011;4676;42.678;23.244;2022-09-09T08:46:55;11.30;;;10.30;;
9276;SDS011;4676;42.678;23.244;2022-09-09T08:49:35;13.70;;;10.53;;
9276;SDS011;4676;42.678;23.244;2022-09-09T08:52:16;11.77;;;10.67;;
9276;SDS011;4676;42.678;23.244;2022-09-09T08:54:46;14.43;;;10.73;;
9276;SDS011;4676;42.678;23.244;2022-09-09T08:57:14;11.60;;;10.50;;
9276;SDS011;4676;42.678;23.244;2022-09-09T08:59:50;11.37;;;9.37;;
9276;SDS011;4676;42.678;23.244;2022-09-09T09:02:21;11.90;;;10.70;;
9276;SDS011;4676;42.678;23.244;2022-09-09T09:04:58;12.97;;;10.37;;
9276;SDS011;4676;42.678;23.244;2022-09-09T09:07:35;11.43;;;9.93;;
9276;SDS011;4676;42.678;23.244;2022-09-09T09:10:16;11.80;;;9.53;;
9276;SDS011;4676;42.678;23.244;2022-09-09T09:12:58;9.83;;;9.00;;
9276;SDS011;4676;42.678;23.244;2022-09-09T09:15:30;10.73;;;9.67;;
9276;SDS011;4676;42.678;23.244;2022-09-09T09:18:01;14.27;;;9.97;;
9276;SDS011;4676;42.678;23.244;2022-09-09T09:20:29;13.97;;;9.43;;
9276;SDS011;4676;42.678;23.244;2022-09-09T09:23:06;15.50;;;9.67;;
9276;SDS011;4676;42.678;23.244;2022-09-09T09:25:45;10.53;;;9.50;;
9276;SDS011;4676;42.678;23.244;2022-09-09T09:28:13;9.40;;;8.47;;
9276;SDS011;4676;42.678;23.244;2022-09-09T09:30:47;8.73;;;7.93;;
9276;SDS011;4676;42.678;23.244;2022-09-09T09:33:20;8.93;;;7.93;;
9276;SDS011;4676;42.678;23.244;2022-09-09T09:35:50;10.87;;;8.73;;
9276;SDS011;4676;42.678;23.244;2022-09-09T09:38:19;9.40;;;8.60;;
9276;SDS011;4676;42.678;23.244;2022-09-09T09:40:49;9.87;;;7.90;;
9276;SDS011;4676;42.678;23.244;2022-09-09T09:43:18;9.80;;;8.37;;
9276;SDS011;4676;42.678;23.244;2022-09-09T09:45:49;8.27;;;7.67;;
9276;SDS011;4676;42.678;23.244;2022-09-09T09:48:16;8.67;;;7.80;;
9276;SDS011;4676;42.678;23.244;2022-09-09T09:50:46;8.37;;;7.53;;
9276;SDS011;4676;42.678;23.244;2022-09-09T09:53:17;8.13;;;7.33;;
9276;SDS011;4676;42.678;23.244;2022-09-09T09:55:49;8.20;;;7.43;;
9276;SDS011;4676;42.678;23.244;2022-09-09T09:58:19;8.00;;;7.30;;
9276;SDS011;4676;42.678;23.244;2022-09-09T10:00:51;8.23;;;7.63;;
9276;SDS011;4676;42.678;23.244;2022-09-09T10:03:21;8.13;;;7.57;;
9276;SDS011;4676;42.678;23.244;2022-09-09T10:05:50;9.03;;;7.40;;
9276;SDS011;4676;42.678;23.244;2022-09-09T10:08:17;11.33;;;7.03;;
9276;SDS011;4676;42.678;23.244;2022-09-09T10:10:50;7.80;;;7.10;;
9276;SDS011;4676;42.678;23.244;2022-09-09T10:13:32;7.40;;;7.00;;
9276;SDS011;4676;42.678;23.244;2022-09-09T10:16:16;8.37;;;7.50;;
9276;SDS011;4676;42.678;23.244;2022-09-09T10:18:58;10.87;;;6.83;;
9276;SDS011;4676;42.678;23.244;2022-09-09T10:21:32;9.23;;;6.90;;
9276;SDS011;4676;42.678;23.244;2022-09-09T10:24:19;8.03;;;6.83;;
9276;SDS011;4676;42.678;23.244;2022-09-09T10:27:01;8.73;;;7.93;;
9276;SDS011;4676;42.678;23.244;2022-09-09T10:29:43;8.07;;;7.30;;
9276;SDS011;4676;42.678;23.244;2022-09-09T10:32:27;10.77;;;7.40;;
9276;SDS011;4676;42.678;23.244;2022-09-09T10:35:12;9.70;;;7.20;;
9276;SDS011;4676;42.678;23.244;2022-09-09T10:40:44;10.10;;;8.20;;
9276;SDS011;4676;42.678;23.244;2022-09-09T10:43:21;11.40;;;8.80;;
9276;SDS011;4676;42.678;23.244;2022-09-09T10:45:58;8.97;;;8.03;;
9276;SDS011;4676;42.678;23.244;2022-09-09T10:48:38;10.77;;;8.00;;
9276;SDS011;4676;42.678;23.244;2022-09-09T10:51:23;12.93;;;8.17;;
9276;SDS011;4676;42.678;23.244;2022-09-09T10:56:33;9.27;;;8.13;;
9276;SDS011;4676;42.678;23.244;2022-09-09T10:59:02;9.00;;;7.63;;
9276;SDS011;4676;42.678;23.244;2022-09-09T11:01:34;8.87;;;7.83;;
9276;SDS011;4676;42.678;23.244;2022-09-09T11:04:10;8.27;;;7.60;;
9276;SDS011;4676;42.678;23.244;2022-09-09T11:06:44;9.03;;;7.70;;
9276;SDS011;4676;42.678;23.244;2022-09-09T11:09:17;9.70;;;8.20;;
9276;SDS011;4676;42.678;23.244;2022-09-09T11:11:49;11.10;;;7.87;;
9276;SDS011;4676;42.678;23.244;2022-09-09T11:14:21;12.17;;;8.10;;
9276;SDS011;4676;42.678;23.244;2022-09-09T11:16:56;14.47;;;8.23;;
9276;SDS011;4676;42.678;23.244;2022-09-09T11:19:28;14.60;;;8.20;;
9276;SDS011;4676;42.678;23.244;2022-09-09T11:22:00;10.67;;;8.23;;
9276;SDS011;4676;42.678;23.244;2022-09-09T11:24:31;7.57;;;6.97;;
9276;SDS011;4676;42.678;23.244;2022-09-09T11:27:05;11.83;;;8.63;;
9276;SDS011;4676;42.678;23.244;2022-09-09T11:32:58;8.90;;;8.00;;
9276;SDS011;4676;42.678;23.244;2022-09-09T11:35:40;11.10;;;7.50;;
9276;SDS011;4676;42.678;23.244;2022-09-09T11:38:19;8.23;;;7.37;;
9276;SDS011;4676;42.678;23.244;2022-09-09T11:40:55;13.80;;;7.80;;
9276;SDS011;4676;42.678;23.244;2022-09-09T11:43:26;9.83;;;8.33;;
9276;SDS011;4676;42.678;23.244;2022-09-09T11:45:57;9.90;;;7.93;;
9276;SDS011;4676;42.678;23.244;2022-09-09T11:48:29;8.47;;;7.63;;
9276;SDS011;4676;42.678;23.244;2022-09-09T11:51:02;8.43;;;7.83;;
9276;SDS011;4676;42.678;23.244;2022-09-09T11:53:32;9.87;;;8.93;;
9276;SDS011;4676;42.678;23.244;2022-09-09T11:56:07;11.30;;;8.10;;
9276;SDS011;4676;42.678;23.244;2022-09-09T11:58:41;8.73;;;8.03;;
9276;SDS011;4676;42.678;23.244;2022-09-09T12:01:16;9.00;;;8.30;;
9276;SDS011;4676;42.678;23.244;2022-09-09T12:03:55;9.23;;;8.30;;
9276;SDS011;4676;42.678;23.244;2022-09-09T12:06:43;10.97;;;9.03;;
9276;SDS011;4676;42.678;23.244;2022-09-09T12:09:19;14.10;;;8.40;;
9276;SDS011;4676;42.678;23.244;2022-09-09T12:11:49;7.43;;;6.77;;
9276;SDS011;4676;42.678;23.244;2022-09-09T12:14:20;7.63;;;6.93;;
9276;SDS011;4676;42.678;23.244;2022-09-09T12:16:49;10.27;;;7.53;;
9276;SDS011;4676;42.678;23.244;2022-09-09T12:19:17;8.10;;;6.97;;
9276;SDS011;4676;42.678;23.244;2022-09-09T12:21:51;8.93;;;6.37;;
9276;SDS011;4676;42.678;23.244;2022-09-09T12:24:28;7.03;;;6.43;;
9276;SDS011;4676;42.678;23.244;2022-09-09T12:27:01;7.03;;;6.43;;
9276;SDS011;4676;42.678;23.244;2022-09-09T12:29:37;7.77;;;5.87;;
9276;SDS011;4676;42.678;23.244;2022-09-09T12:32:14;6.67;;;5.10;;
9276;SDS011;4676;42.678;23.244;2022-09-09T12:34:49;11.40;;;5.53;;
9276;SDS011;4676;42.678;23.244;2022-09-09T12:37:24;5.33;;;5.03;;
9276;SDS011;4676;42.678;23.244;2022-09-09T12:39:56;8.33;;;5.20;;
9276;SDS011;4676;42.678;23.244;2022-09-09T12:42:25;9.87;;;5.70;;
9276;SDS011;4676;42.678;23.244;2022-09-09T12:44:53;7.33;;;5.83;;
9276;SDS011;4676;42.678;23.244;2022-09-09T12:47:23;5.97;;;4.97;;
9276;SDS011;4676;42.678;23.244;2022-09-09T12:50:10;6.80;;;5.17;;
9276;SDS011;4676;42.678;23.244;2022-09-09T12:52:44;8.80;;;4.97;;
9276;SDS011;4676;42.678;23.244;2022-09-09T12:55:16;6.47;;;5.87;;
9276;SDS011;4676;42.678;23.244;2022-09-09T12:57:44;11.20;;;6.37;;
9276;SDS011;4676;42.678;23.244;2022-09-09T13:00:13;9.67;;;5.07;;
9276;SDS011;4676;42.678;23.244;2022-09-09T13:02:46;7.70;;;6.13;;
9276;SDS011;4676;42.678;23.244;2022-09-09T13:05:16;6.20;;;5.50;;
9276;SDS011;4676;42.678;23.244;2022-09-09T13:07:46;7.83;;;6.20;;
9276;SDS011;4676;42.678;23.244;2022-09-09T13:10:14;6.40;;;5.27;;
9276;SDS011;4676;42.678;23.244;2022-09-09T13:12:46;6.70;;;5.87;;
9276;SDS011;4676;42.678;23.244;2022-09-09T13:15:16;9.50;;;5.47;;
9276;SDS011;4676;42.678;23.244;2022-09-09T13:17:51;6.20;;;5.23;;
9276;SDS011;4676;42.678;23.244;2022-09-09T13:20:20;7.87;;;5.40;;
9276;SDS011;4676;42.678;23.244;2022-09-09T13:22:51;14.80;;;5.80;;
9276;SDS011;4676;42.678;23.244;2022-09-09T13:25:21;9.80;;;5.20;;
9276;SDS011;4676;42.678;23.244;2022-09-09T13:27:52;5.95;;;5.15;;
9276;SDS011;4676;42.678;23.244;2022-09-09T13:30:22;7.07;;;5.33;;
9276;SDS011;4676;42.678;23.244;2022-09-09T13:33:00;19.23;;;5.83;;
9276;SDS011;4676;42.678;23.244;2022-09-09T13:35:28;8.07;;;5.63;;
9276;SDS011;4676;42.678;23.244;2022-09-09T13:37:57;7.80;;;5.80;;
9276;SDS011;4676;42.678;23.244;2022-09-09T13:40:25;6.60;;;5.17;;
9276;SDS011;4676;42.678;23.244;2022-09-09T13:42:54;6.43;;;5.77;;
9276;SDS011;4676;42.678;23.244;2022-09-09T13:45:22;12.27;;;5.80;;
9276;SDS011;4676;42.678;23.244;2022-09-09T13:47:51;6.80;;;6.20;;
9276;SDS011;4676;42.678;23.244;2022-09-09T13:50:21;7.30;;;5.37;;
9276;SDS011;4676;42.678;23.244;2022-09-09T13:52:49;6.77;;;4.57;;
9276;SDS011;4676;42.678;23.244;2022-09-09T13:55:18;5.93;;;5.40;;
9276;SDS011;4676;42.678;23.244;2022-09-09T13:57:50;9.60;;;6.60;;
9276;SDS011;4676;42.678;23.244;2022-09-09T14:00:17;8.00;;;7.07;;
9276;SDS011;4676;42.678;23.244;2022-09-09T14:02:44;7.00;;;5.90;;
9276;SDS011;4676;42.678;23.244;2022-09-09T14:05:11;12.70;;;6.87;;
9276;SDS011;4676;42.678;23.244;2022-09-09T14:07:38;7.50;;;5.50;;
9276;SDS011;4676;42.678;23.244;2022-09-09T14:10:07;6.47;;;5.90;;
9276;SDS011;4676;42.678;23.244;2022-09-09T14:12:36;6.27;;;5.03;;
9276;SDS011;4676;42.678;23.244;2022-09-09T14:15:03;9.80;;;4.70;;
9276;SDS011;4676;42.678;23.244;2022-09-09T14:17:31;6.27;;;5.20;;
9276;SDS011;4676;42.678;23.244;2022-09-09T14:20:01;9.93;;;5.17;;
9276;SDS011;4676;42.678;23.244;2022-09-09T14:22:30;8.13;;;5.63;;
9276;SDS011;4676;42.678;23.244;2022-09-09T14:24:57;8.70;;;5.43;;
9276;SDS011;4676;42.678;23.244;2022-09-09T14:27:24;9.27;;;7.07;;
9276;SDS011;4676;42.678;23.244;2022-09-09T14:29:53;8.00;;;7.17;;
9276;SDS011;4676;42.678;23.244;2022-09-09T14:32:20;14.03;;;9.67;;
9276;SDS011;4676;42.678;23.244;2022-09-09T14:34:47;8.30;;;7.50;;
9276;SDS011;4676;42.678;23.244;2022-09-09T14:37:15;12.10;;;7.47;;
9276;SDS011;4676;42.678;23.244;2022-09-09T14:39:42;8.33;;;7.43;;
9276;SDS011;4676;42.678;23.244;2022-09-09T14:42:09;10.73;;;7.20;;
9276;SDS011;4676;42.678;23.244;2022-09-09T14:44:36;18.83;;;8.17;;
9276;SDS011;4676;42.678;23.244;2022-09-09T14:47:05;12.77;;;6.90;;
9276;SDS011;4676;42.678;23.244;2022-09-09T14:49:33;9.13;;;6.80;;
9276;SDS011;4676;42.678;23.244;2022-09-09T14:52:00;14.67;;;9.10;;
9276;SDS011;4676;42.678;23.244;2022-09-09T14:54:27;13.20;;;7.57;;
9276;SDS011;4676;42.678;23.244;2022-09-09T14:56:54;8.97;;;7.63;;
9276;SDS011;4676;42.678;23.244;2022-09-09T14:59:22;9.77;;;7.30;;
9276;SDS011;4676;42.678;23.244;2022-09-09T15:01:48;8.77;;;7.47;;
9276;SDS011;4676;42.678;23.244;2022-09-09T15:04:17;8.30;;;7.50;;
9276;SDS011;4676;42.678;23.244;2022-09-09T15:06:44;9.00;;;8.07;;
9276;SDS011;4676;42.678;23.244;2022-09-09T15:09:13;10.03;;;8.53;;
9276;SDS011;4676;42.678;23.244;2022-09-09T15:11:40;10.00;;;8.60;;
9276;SDS011;4676;42.678;23.244;2022-09-09T15:14:07;8.67;;;8.03;;
9276;SDS011;4676;42.678;23.244;2022-09-09T15:16:35;15.70;;;8.20;;
9276;SDS011;4676;42.678;23.244;2022-09-09T15:19:02;7.90;;;7.20;;
9276;SDS011;4676;42.678;23.244;2022-09-09T15:21:32;10.83;;;6.50;;